createdAt,value
2022-10-18T04:47:22.874Z,9.30
2022-10-18T04:49:49.599Z,9.30
2022-10-18T04:52:16.622Z,9.30
2022-10-18T04:54:43.355Z,9.40
2022-10-18T04:57:10.063Z,9.40
2022-10-18T04:59:37.491Z,9.40
2022-10-18T05:02:04.874Z,9.40
2022-10-18T05:04:34.573Z,9.40
2022-10-18T05:07:02.801Z,9.30
2022-10-18T05:09:29.593Z,9.30
2022-10-18T05:11:56.323Z,9.30
2022-10-18T05:14:23.016Z,9.30
2022-10-18T05:16:49.790Z,9.30
2022-10-18T05:19:16.565Z,9.30
2022-10-18T05:21:43.358Z,9.20
2022-10-18T05:24:11.836Z,9.20
2022-10-18T05:26:38.590Z,9.30
2022-10-18T05:29:05.582Z,9.30
2022-10-18T05:31:32.466Z,9.40
2022-10-18T05:33:59.222Z,9.40
2022-10-18T05:36:26.797Z,9.50
2022-10-18T05:38:54.064Z,9.60
2022-10-18T05:41:21.124Z,9.70
2022-10-18T05:43:47.983Z,9.90
2022-10-18T05:46:15.802Z,10.10
2022-10-18T05:48:44.397Z,10.40
2022-10-18T05:51:11.456Z,10.50
2022-10-18T05:53:38.423Z,10.70
2022-10-18T05:56:06.247Z,10.90
2022-10-18T05:58:33.148Z,11.10
2022-10-18T06:01:01.136Z,11.40
2022-10-18T06:03:27.969Z,11.70
2022-10-18T06:06:02.478Z,12.10
2022-10-18T06:08:29.288Z,12.40
2022-10-18T06:10:56.232Z,12.70
2022-10-18T06:13:22.991Z,13.00
2022-10-18T06:15:49.976Z,13.20
2022-10-18T06:18:16.778Z,13.60
2022-10-18T06:20:43.492Z,13.90
2022-10-18T06:23:10.273Z,14.30
2022-10-18T06:25:37.017Z,14.70
2022-10-18T06:28:07.797Z,15.00
2022-10-18T06:30:37.104Z,15.30
2022-10-18T06:33:03.944Z,15.80
2022-10-18T06:35:30.660Z,16.00
2022-10-18T06:37:57.781Z,16.20
2022-10-18T06:40:24.797Z,16.40
2022-10-18T06:43:00.607Z,16.70
2022-10-18T06:45:33.455Z,17.00
2022-10-18T06:48:00.351Z,17.20
2022-10-18T06:50:27.074Z,17.40
2022-10-18T06:52:53.818Z,17.70
2022-10-18T06:55:20.544Z,17.80
2022-10-18T06:57:47.358Z,17.90
2022-10-18T07:00:14.768Z,18.00
2022-10-18T07:02:41.488Z,18.00
2022-10-18T07:05:09.153Z,18.10
2022-10-18T07:07:36.184Z,18.20
2022-10-18T07:10:05.095Z,18.30
2022-10-18T07:12:32.246Z,18.20
2022-10-18T07:14:59.027Z,18.30
2022-10-18T07:17:26.135Z,18.30
2022-10-18T07:19:52.958Z,18.40
2022-10-18T07:22:19.706Z,18.60
2022-10-18T07:24:46.438Z,18.70
2022-10-18T07:27:13.204Z,18.90
2022-10-18T07:29:40.539Z,18.80
2022-10-18T07:32:07.271Z,18.60
2022-10-18T07:34:34.043Z,18.50
2022-10-18T07:37:02.217Z,18.70
2022-10-18T07:39:28.937Z,18.90
2022-10-18T07:41:55.712Z,19.10
2022-10-18T07:44:22.550Z,19.20
2022-10-18T07:46:49.312Z,19.30
2022-10-18T07:49:16.145Z,19.40
2022-10-18T07:51:42.961Z,19.60
2022-10-18T07:54:09.791Z,19.50
2022-10-18T07:56:36.559Z,19.30
2022-10-18T07:59:03.352Z,19.30
2022-10-18T08:01:30.233Z,19.10
2022-10-18T08:03:57.086Z,19.10
2022-10-18T08:06:23.893Z,19.10
2022-10-18T08:08:50.751Z,19.00
2022-10-18T08:11:19.146Z,18.90
2022-10-18T08:13:45.996Z,18.90
2022-10-18T08:16:17.950Z,19.10
2022-10-18T08:18:44.829Z,19.20
2022-10-18T08:21:12.572Z,19.20
2022-10-18T08:23:39.447Z,19.30
2022-10-18T08:26:08.557Z,19.40
2022-10-18T08:28:38.347Z,19.40
2022-10-18T08:31:06.362Z,19.40
2022-10-18T08:33:33.988Z,19.50
2022-10-18T08:36:02.016Z,19.50
2022-10-18T08:38:34.493Z,19.50
2022-10-18T08:41:33.819Z,19.40
2022-10-18T08:44:07.305Z,19.40
2022-10-18T08:46:35.261Z,19.50
2022-10-18T08:49:03.490Z,19.40
2022-10-18T08:51:42.627Z,19.40
2022-10-18T08:54:24.304Z,19.50
2022-10-18T08:56:59.789Z,19.60
2022-10-18T08:59:26.859Z,19.60
2022-10-18T09:01:59.682Z,19.60
2022-10-18T09:04:44.876Z,19.80
2022-10-18T09:07:39.618Z,19.80
2022-10-18T09:10:24.895Z,19.80
2022-10-18T09:12:51.658Z,19.70
2022-10-18T09:15:20.719Z,19.80
2022-10-18T09:18:09.161Z,20.00
2022-10-18T09:20:46.203Z,20.30
2022-10-18T09:23:29.338Z,20.50
2022-10-18T09:25:57.589Z,20.70
2022-10-18T09:28:42.490Z,20.80
2022-10-18T09:31:47.586Z,21.00
2022-10-18T09:34:22.697Z,21.00
2022-10-18T09:36:51.198Z,21.00
2022-10-18T09:39:24.132Z,21.00
2022-10-18T09:41:53.502Z,21.00
2022-10-18T09:44:29.334Z,20.90
2022-10-18T09:47:05.783Z,20.90
2022-10-18T09:49:34.446Z,21.00
2022-10-18T09:52:02.361Z,21.10
2022-10-18T09:54:43.753Z,21.10
2022-10-18T09:57:46.209Z,21.20
2022-10-18T10:00:21.518Z,21.20
2022-10-18T10:02:48.316Z,21.30
2022-10-18T10:05:15.275Z,21.40
2022-10-18T10:07:47.502Z,21.30
2022-10-18T10:10:20.575Z,21.20
2022-10-18T10:12:47.467Z,21.30
2022-10-18T10:15:28.186Z,21.40
2022-10-18T10:18:03.198Z,21.30
2022-10-18T10:20:37.176Z,21.20
2022-10-18T10:23:35.805Z,21.20
2022-10-18T10:26:21.560Z,21.20
2022-10-18T10:28:49.096Z,21.20
2022-10-18T10:31:32.492Z,21.30
2022-10-18T10:34:06.889Z,21.20
2022-10-18T10:36:34.353Z,21.00
2022-10-18T10:39:11.753Z,21.10
2022-10-18T10:41:38.904Z,21.00
2022-10-18T10:44:07.063Z,21.00
2022-10-18T10:46:35.261Z,20.90
2022-10-18T10:49:38.107Z,21.00
2022-10-18T10:52:15.401Z,20.90
2022-10-18T10:54:50.531Z,20.80
2022-10-18T10:57:24.082Z,20.60
2022-10-18T10:59:55.522Z,20.70
2022-10-18T11:02:32.863Z,20.70
2022-10-18T11:05:25.254Z,20.60
2022-10-18T11:07:54.731Z,20.60
2022-10-18T11:10:25.717Z,20.70
2022-10-18T11:13:03.808Z,20.80
2022-10-18T11:15:35.954Z,20.80
2022-10-18T11:18:10.904Z,20.90
2022-10-18T11:20:44.336Z,20.90
2022-10-18T11:23:12.280Z,20.80
2022-10-18T11:25:41.702Z,20.70
2022-10-18T11:28:29.054Z,20.60
2022-10-18T11:31:13.006Z,20.60
2022-10-18T11:34:07.235Z,20.50
2022-10-18T11:37:27.246Z,20.50
2022-10-18T11:40:33.964Z,20.50
2022-10-18T11:43:07.492Z,20.30
2022-10-18T11:45:58.899Z,20.20
2022-10-18T11:48:40.022Z,20.20
2022-10-18T11:51:29.648Z,20.20
2022-10-18T11:54:33.194Z,20.10
2022-10-18T11:57:10.600Z,20.10
2022-10-18T11:59:38.188Z,19.90
2022-10-18T12:02:16.898Z,19.80
2022-10-18T12:05:22.086Z,19.70
2022-10-18T12:07:47.550Z,19.70
2022-10-18T12:10:26.227Z,19.80
2022-10-18T12:13:06.968Z,19.80
2022-10-18T12:15:35.833Z,19.90
2022-10-18T12:18:07.675Z,19.90
2022-10-18T12:20:43.085Z,19.90
2022-10-18T12:23:17.944Z,20.00
2022-10-18T12:25:53.171Z,19.90
2022-10-18T12:28:42.724Z,19.90
2022-10-18T12:31:33.852Z,19.90
2022-10-18T12:34:17.201Z,19.90
2022-10-18T12:40:18.564Z,19.80
2022-10-18T12:42:48.116Z,19.80
2022-10-18T12:45:35.445Z,19.80
2022-10-18T12:48:06.394Z,19.80
2022-10-18T12:50:35.094Z,19.80
2022-10-18T12:53:07.175Z,19.70
2022-10-18T12:55:39.186Z,19.70
2022-10-18T12:58:14.894Z,19.70
2022-10-18T13:00:41.743Z,19.70
2022-10-18T13:03:16.645Z,19.70
2022-10-18T13:05:54.531Z,19.60
2022-10-18T13:08:27.977Z,19.60
2022-10-18T13:11:00.991Z,19.60
2022-10-18T13:13:40.018Z,19.50
2022-10-18T13:16:13.049Z,19.50
2022-10-18T13:19:15.024Z,19.50
2022-10-18T13:21:44.605Z,19.60
2022-10-18T13:24:17.810Z,19.60
2022-10-18T13:26:59.082Z,19.50
2022-10-18T13:30:35.631Z,19.60
2022-10-18T13:33:22.143Z,19.60
2022-10-18T13:35:55.826Z,19.60
2022-10-18T13:38:41.762Z,19.50
2022-10-18T13:41:41.814Z,19.50
2022-10-18T13:44:28.736Z,19.50
2022-10-18T13:46:55.456Z,19.50
2022-10-18T13:49:40.094Z,19.40
2022-10-18T13:52:18.864Z,19.50
2022-10-18T13:55:12.949Z,19.40
2022-10-18T13:57:57.935Z,19.50
2022-10-18T14:00:55.615Z,19.50
2022-10-18T14:03:56.131Z,19.50
2022-10-18T14:06:23.015Z,19.50
2022-10-18T14:08:53.360Z,19.50
2022-10-18T14:11:34.541Z,19.40
2022-10-18T14:14:39.173Z,19.50
2022-10-18T14:17:07.983Z,19.40
2022-10-18T14:19:42.778Z,19.50
2022-10-18T14:23:11.866Z,19.40
2022-10-18T14:25:39.039Z,19.50
2022-10-18T14:28:15.471Z,19.40
2022-10-18T14:30:52.843Z,19.50
2022-10-18T14:33:39.424Z,19.50
2022-10-18T14:36:22.392Z,19.50
2022-10-18T14:38:53.138Z,19.50
2022-10-18T14:41:24.925Z,19.50
2022-10-18T14:43:52.542Z,19.50
2022-10-18T14:46:29.033Z,19.40
2022-10-18T14:49:01.546Z,19.40
2022-10-18T14:51:30.419Z,19.40
2022-10-18T14:53:57.222Z,19.30
2022-10-18T14:56:29.702Z,19.30
2022-10-18T14:59:00.463Z,19.30
2022-10-18T15:01:30.146Z,19.30
2022-10-18T15:04:01.598Z,19.30
2022-10-18T15:06:28.317Z,19.20
2022-10-18T15:08:56.992Z,19.20
2022-10-18T15:11:24.204Z,19.20
2022-10-18T15:14:01.098Z,19.20
2022-10-18T15:16:29.308Z,19.10
2022-10-18T15:19:18.817Z,19.00
2022-10-18T15:22:30.196Z,19.00
2022-10-18T15:25:18.012Z,18.90
2022-10-18T15:27:57.932Z,18.80
2022-10-18T15:30:29.342Z,18.80
2022-10-18T15:32:59.170Z,18.70
2022-10-18T15:35:30.912Z,18.60
2022-10-18T15:37:58.840Z,18.60
2022-10-18T15:40:30.315Z,18.50
2022-10-18T15:42:58.556Z,18.40
2022-10-18T15:45:25.353Z,18.30
2022-10-18T15:48:02.343Z,18.20
2022-10-18T15:50:45.251Z,18.10
2022-10-18T15:53:21.319Z,18.00
2022-10-18T15:56:25.890Z,17.90
2022-10-18T15:58:52.712Z,17.80
2022-10-18T16:01:33.677Z,17.70
2022-10-18T16:04:00.884Z,17.60
2022-10-18T16:06:27.671Z,17.50
2022-10-18T16:08:54.631Z,17.40
2022-10-18T16:11:25.104Z,17.30
2022-10-18T16:13:55.128Z,17.20
2022-10-18T16:16:25.825Z,17.10
2022-10-18T16:18:52.690Z,17.00
2022-10-18T16:21:28.037Z,17.00
2022-10-18T16:23:55.019Z,16.90
2022-10-18T16:26:21.939Z,16.90
2022-10-18T16:28:52.125Z,16.80
2022-10-18T16:31:23.713Z,16.80
2022-10-18T16:33:51.146Z,16.70
2022-10-18T16:36:19.602Z,16.70
2022-10-18T16:38:46.539Z,16.70
2022-10-18T16:41:13.442Z,16.60
2022-10-18T16:43:40.291Z,16.60
2022-10-18T16:46:07.553Z,16.60
2022-10-18T16:48:34.451Z,16.50
2022-10-18T16:51:01.935Z,16.60
2022-10-18T16:53:28.784Z,16.60
2022-10-18T16:55:57.720Z,16.50
2022-10-18T16:58:24.740Z,16.60
2022-10-18T17:00:52.137Z,16.50
2022-10-18T17:03:19.339Z,16.50
2022-10-18T17:05:46.181Z,16.50
2022-10-18T17:08:20.143Z,16.50
2022-10-18T17:10:47.772Z,16.50
2022-10-18T17:13:14.625Z,16.40
2022-10-18T17:15:42.514Z,16.40
2022-10-18T17:18:17.261Z,16.40
2022-10-18T17:20:44.212Z,16.40
2022-10-18T17:23:11.121Z,16.40
2022-10-18T17:25:46.380Z,16.30
2022-10-18T17:28:24.810Z,16.30
2022-10-18T17:30:52.143Z,16.20
2022-10-18T17:33:18.947Z,16.20
2022-10-18T17:35:45.711Z,16.00
2022-10-18T17:38:12.533Z,16.00
2022-10-18T17:40:42.634Z,15.90
2022-10-18T17:43:10.337Z,15.80
2022-10-18T17:45:37.931Z,15.70
2022-10-18T17:48:04.717Z,15.60
2022-10-18T17:50:31.607Z,15.60
2022-10-18T17:52:58.428Z,15.50
2022-10-18T17:55:25.213Z,15.50
2022-10-18T17:57:52.038Z,15.40
2022-10-18T18:00:18.851Z,15.40
2022-10-18T18:02:46.717Z,15.30
2022-10-18T18:05:13.520Z,15.30
2022-10-18T18:07:40.324Z,15.30
2022-10-18T18:10:08.431Z,15.30
2022-10-18T18:12:35.513Z,15.30
2022-10-18T18:15:02.428Z,15.30
2022-10-18T18:17:34.417Z,15.20
2022-10-18T18:20:12.746Z,15.20
2022-10-18T18:22:41.853Z,15.20
2022-10-18T18:25:09.758Z,15.20
2022-10-18T18:27:36.614Z,15.20
2022-10-18T18:30:03.566Z,15.10
2022-10-18T18:32:30.600Z,15.10
2022-10-18T18:34:57.659Z,15.00
2022-10-18T18:37:24.604Z,15.00
2022-10-18T18:39:51.419Z,15.00
2022-10-18T18:42:18.194Z,14.90
2022-10-18T18:44:46.094Z,14.90
2022-10-18T18:47:14.087Z,14.80
2022-10-18T18:49:41.094Z,14.80
2022-10-18T18:52:07.907Z,14.80
2022-10-18T18:54:34.681Z,14.80
2022-10-18T18:57:05.266Z,14.80
2022-10-18T18:59:32.100Z,14.80
2022-10-18T19:01:58.864Z,14.70
2022-10-18T19:04:25.703Z,14.70
2022-10-18T19:06:52.580Z,14.80
2022-10-18T19:09:21.898Z,14.80
2022-10-18T19:11:53.002Z,15.00
2022-10-18T19:14:20.006Z,15.30
2022-10-18T19:16:48.295Z,15.60
2022-10-18T19:19:19.134Z,15.80
2022-10-18T19:21:50.407Z,16.10
2022-10-18T19:24:17.230Z,16.40
2022-10-18T19:26:50.950Z,16.60
2022-10-18T19:29:21.327Z,16.80
2022-10-18T19:31:48.305Z,16.90
2022-10-18T19:34:15.448Z,17.10
2022-10-18T19:36:45.910Z,17.20
2022-10-18T19:39:20.398Z,17.30
2022-10-18T19:41:49.280Z,17.40
2022-10-18T19:44:16.514Z,17.50
2022-10-18T19:46:43.346Z,17.60
2022-10-18T19:49:11.681Z,17.70
2022-10-18T19:51:38.513Z,17.80
2022-10-18T19:54:05.660Z,17.80
2022-10-18T19:56:32.561Z,17.80
2022-10-18T19:58:59.621Z,17.90
2022-10-18T20:01:27.270Z,18.00
2022-10-18T20:03:54.327Z,18.00
2022-10-18T20:06:26.046Z,18.00
2022-10-18T20:08:53.055Z,18.00
2022-10-18T20:11:22.490Z,18.00
2022-10-18T20:13:49.408Z,18.00
2022-10-18T20:16:17.482Z,18.10
2022-10-18T20:18:47.612Z,18.10
2022-10-18T20:21:17.201Z,18.00
2022-10-18T20:23:44.623Z,18.00
2022-10-18T20:26:16.740Z,18.00
2022-10-18T20:28:56.180Z,17.90
2022-10-18T20:31:25.037Z,17.90
2022-10-18T20:33:59.823Z,17.80
2022-10-18T20:36:26.841Z,17.70
2022-10-18T20:38:53.882Z,17.70
2022-10-18T20:41:25.654Z,17.70
2022-10-18T20:44:02.779Z,17.70
2022-10-18T20:46:36.607Z,17.70
2022-10-18T20:49:04.285Z,17.60
2022-10-18T20:51:33.524Z,17.50
2022-10-18T20:54:01.370Z,17.50
2022-10-18T20:56:28.221Z,17.40
2022-10-18T20:58:58.547Z,17.40
2022-10-18T21:01:30.133Z,17.30
2022-10-18T21:03:59.972Z,17.30
2022-10-18T21:06:43.226Z,17.20
2022-10-18T21:09:16.633Z,17.20
2022-10-18T21:11:44.986Z,17.10
2022-10-18T21:14:13.223Z,17.10
2022-10-18T21:16:40.078Z,17.00
2022-10-18T21:19:17.465Z,17.00
2022-10-18T21:21:45.834Z,17.00
2022-10-18T21:24:17.116Z,16.90
2022-10-18T21:26:44.031Z,16.90
2022-10-18T21:29:11.281Z,16.90
2022-10-18T21:31:39.291Z,16.90
2022-10-18T21:34:07.846Z,16.90
2022-10-18T21:36:35.946Z,16.80
2022-10-18T21:39:06.822Z,16.80
2022-10-18T21:41:33.733Z,16.80
2022-10-18T21:44:05.557Z,16.80
2022-10-18T21:46:35.450Z,16.80
2022-10-18T21:49:02.176Z,16.80
2022-10-18T21:51:29.105Z,16.80
2022-10-18T21:53:57.448Z,16.80
2022-10-18T21:56:26.301Z,16.80
2022-10-18T21:58:53.059Z,16.80
2022-10-18T22:01:21.952Z,16.70
2022-10-18T22:03:49.954Z,16.70
2022-10-18T22:06:17.236Z,16.70
2022-10-18T22:08:54.410Z,16.70
2022-10-18T22:11:31.883Z,16.70
2022-10-18T22:13:58.691Z,16.70
2022-10-18T22:16:25.502Z,16.60
2022-10-18T22:18:52.560Z,16.50
2022-10-18T22:21:19.961Z,16.50
2022-10-18T22:23:49.259Z,16.50
2022-10-18T22:26:19.390Z,16.50
2022-10-18T22:28:46.477Z,16.50
2022-10-18T22:31:20.959Z,16.50
2022-10-18T22:33:49.502Z,16.50
2022-10-18T22:36:19.921Z,16.50
2022-10-18T22:38:46.900Z,16.50
2022-10-18T22:41:13.994Z,16.50
2022-10-18T22:43:40.817Z,16.40
2022-10-18T22:46:09.625Z,16.40
2022-10-18T22:48:39.188Z,16.40
2022-10-18T22:51:06.148Z,16.40
2022-10-18T22:53:33.583Z,16.30
2022-10-18T22:56:00.456Z,16.30
2022-10-18T22:58:27.299Z,16.30
2022-10-18T23:01:11.117Z,16.20
2022-10-18T23:03:38.370Z,16.20
2022-10-18T23:06:05.866Z,16.20
2022-10-18T23:08:32.805Z,16.20
